sensor_id;sensor_type;location;lat;lon;timestamp;temperature;humidity
7317;DHT22;3699;51.462;6.696;2023-12-07T00:02:14;1.40;99.90
7317;DHT22;3699;51.462;6.696;2023-12-07T00:04:40;1.40;99.90
7317;DHT22;3699;51.462;6.696;2023-12-07T00:07:07;1.40;99.90
7317;DHT22;3699;51.462;6.696;2023-12-07T00:09:34;1.40;99.90
7317;DHT22;3699;51.462;6.696;2023-12-07T00:12:02;1.30;99.90
7317;DHT22;3699;51.462;6.696;2023-12-07T00:14:29;1.30;99.90
7317;DHT22;3699;51.462;6.696;2023-12-07T00:16:55;1.30;99.90
7317;DHT22;3699;51.462;6.696;2023-12-07T00:19:22;1.30;99.90
7317;DHT22;3699;51.462;6.696;2023-12-07T00:21:49;1.20;99.90
7317;DHT22;3699;51.462;6.696;2023-12-07T00:24:16;1.20;99.90
7317;DHT22;3699;51.462;6.696;2023-12-07T00:26:42;1.20;99.90
7317;DHT22;3699;51.462;6.696;2023-12-07T00:29:10;1.20;99.90
7317;DHT22;3699;51.462;6.696;2023-12-07T00:31:37;1.20;99.90
7317;DHT22;3699;51.462;6.696;2023-12-07T00:34:04;1.20;99.90
7317;DHT22;3699;51.462;6.696;2023-12-07T00:36:31;1.10;99.90
7317;DHT22;3699;51.462;6.696;2023-12-07T00:38:59;1.20;99.90
7317;DHT22;3699;51.462;6.696;2023-12-07T00:41:25;1.10;99.90
7317;DHT22;3699;51.462;6.696;2023-12-07T00:43:52;1.10;99.90
7317;DHT22;3699;51.462;6.696;2023-12-07T00:46:21;1.10;99.90
7317;DHT22;3699;51.462;6.696;2023-12-07T00:48:48;1.00;99.90
7317;DHT22;3699;51.462;6.696;2023-12-07T00:51:15;1.00;99.90
7317;DHT22;3699;51.462;6.696;2023-12-07T00:53:42;1.10;99.90
7317;DHT22;3699;51.462;6.696;2023-12-07T00:56:09;1.00;99.90
7317;DHT22;3699;51.462;6.696;2023-12-07T00:58:36;1.00;99.90
7317;DHT22;3699;51.462;6.696;2023-12-07T01:01:04;1.00;99.90
7317;DHT22;3699;51.462;6.696;2023-12-07T01:03:32;1.10;99.90
7317;DHT22;3699;51.462;6.696;2023-12-07T01:05:58;0.90;99.90
7317;DHT22;3699;51.462;6.696;2023-12-07T01:08:25;0.90;99.90
7317;DHT22;3699;51.462;6.696;2023-12-07T01:10:52;0.90;99.90
7317;DHT22;3699;51.462;6.696;2023-12-07T01:13:19;0.90;99.90
7317;DHT22;3699;51.462;6.696;2023-12-07T01:15:45;0.90;99.90
7317;DHT22;3699;51.462;6.696;2023-12-07T01:18:12;0.90;99.90
7317;DHT22;3699;51.462;6.696;2023-12-07T01:20:40;0.90;99.90
7317;DHT22;3699;51.462;6.696;2023-12-07T01:23:07;1.00;99.90
7317;DHT22;3699;51.462;6.696;2023-12-07T01:25:34;1.00;99.90
7317;DHT22;3699;51.462;6.696;2023-12-07T01:28:00;1.00;99.90
7317;DHT22;3699;51.462;6.696;2023-12-07T01:30:27;1.00;99.90
7317;DHT22;3699;51.462;6.696;2023-12-07T01:32:55;1.00;99.90
7317;DHT22;3699;51.462;6.696;2023-12-07T01:35:22;1.00;99.90
7317;DHT22;3699;51.462;6.696;2023-12-07T01:37:50;1.00;99.90
7317;DHT22;3699;51.462;6.696;2023-12-07T01:40:16;1.00;99.90
7317;DHT22;3699;51.462;6.696;2023-12-07T01:42:49;1.00;99.90
7317;DHT22;3699;51.462;6.696;2023-12-07T01:45:16;0.90;99.90
7317;DHT22;3699;51.462;6.696;2023-12-07T01:47:43;0.90;99.90
7317;DHT22;3699;51.462;6.696;2023-12-07T01:50:11;1.00;99.90
7317;DHT22;3699;51.462;6.696;2023-12-07T01:52:44;1.00;99.90
7317;DHT22;3699;51.462;6.696;2023-12-07T01:55:13;1.00;99.90
7317;DHT22;3699;51.462;6.696;2023-12-07T01:57:41;1.10;99.90
7317;DHT22;3699;51.462;6.696;2023-12-07T02:00:10;1.10;99.90
7317;DHT22;3699;51.462;6.696;2023-12-07T02:02:37;1.10;99.90
7317;DHT22;3699;51.462;6.696;2023-12-07T02:05:05;1.20;99.90
7317;DHT22;3699;51.462;6.696;2023-12-07T02:07:33;1.20;99.90
7317;DHT22;3699;51.462;6.696;2023-12-07T02:10:00;1.30;99.90
7317;DHT22;3699;51.462;6.696;2023-12-07T02:12:30;1.30;99.90
7317;DHT22;3699;51.462;6.696;2023-12-07T02:14:57;1.40;99.90
7317;DHT22;3699;51.462;6.696;2023-12-07T02:17:28;1.40;99.90
7317;DHT22;3699;51.462;6.696;2023-12-07T02:20:07;1.40;99.90
7317;DHT22;3699;51.462;6.696;2023-12-07T02:22:41;1.40;99.90
7317;DHT22;3699;51.462;6.696;2023-12-07T02:25:10;1.50;99.90
7317;DHT22;3699;51.462;6.696;2023-12-07T02:27:39;1.50;99.90
7317;DHT22;3699;51.462;6.696;2023-12-07T02:30:07;1.40;99.90
7317;DHT22;3699;51.462;6.696;2023-12-07T02:32:35;1.50;99.90
7317;DHT22;3699;51.462;6.696;2023-12-07T02:35:01;1.50;99.90
7317;DHT22;3699;51.462;6.696;2023-12-07T02:37:33;1.50;99.90
7317;DHT22;3699;51.462;6.696;2023-12-07T02:40:03;1.60;99.90
7317;DHT22;3699;51.462;6.696;2023-12-07T02:42:31;1.50;99.90
7317;DHT22;3699;51.462;6.696;2023-12-07T02:45:02;1.60;99.90
7317;DHT22;3699;51.462;6.696;2023-12-07T02:47:29;1.60;99.90
7317;DHT22;3699;51.462;6.696;2023-12-07T02:49:56;1.60;99.90
7317;DHT22;3699;51.462;6.696;2023-12-07T02:52:23;1.60;99.90
7317;DHT22;3699;51.462;6.696;2023-12-07T02:54:49;1.60;99.90
7317;DHT22;3699;51.462;6.696;2023-12-07T02:57:16;1.70;99.90
7317;DHT22;3699;51.462;6.696;2023-12-07T02:59:43;1.80;99.90
7317;DHT22;3699;51.462;6.696;2023-12-07T03:02:11;1.70;99.90
7317;DHT22;3699;51.462;6.696;2023-12-07T03:04:38;1.80;99.90
7317;DHT22;3699;51.462;6.696;2023-12-07T03:07:04;1.80;99.90
7317;DHT22;3699;51.462;6.696;2023-12-07T03:09:31;1.80;99.90
7317;DHT22;3699;51.462;6.696;2023-12-07T03:14:25;2.00;99.90
7317;DHT22;3699;51.462;6.696;2023-12-07T03:16:52;2.00;99.90
7317;DHT22;3699;51.462;6.696;2023-12-07T03:19:20;2.00;99.90
7317;DHT22;3699;51.462;6.696;2023-12-07T03:21:47;2.00;99.90
7317;DHT22;3699;51.462;6.696;2023-12-07T03:24:13;2.10;99.90
7317;DHT22;3699;51.462;6.696;2023-12-07T03:26:40;2.10;99.90
7317;DHT22;3699;51.462;6.696;2023-12-07T03:29:07;2.20;99.90
7317;DHT22;3699;51.462;6.696;2023-12-07T03:31:34;2.20;99.90
7317;DHT22;3699;51.462;6.696;2023-12-07T03:34:01;2.20;99.90
7317;DHT22;3699;51.462;6.696;2023-12-07T03:36:30;2.20;99.90
7317;DHT22;3699;51.462;6.696;2023-12-07T03:38:56;2.30;99.90
7317;DHT22;3699;51.462;6.696;2023-12-07T03:41:23;2.30;99.90
7317;DHT22;3699;51.462;6.696;2023-12-07T03:43:50;2.30;99.90
7317;DHT22;3699;51.462;6.696;2023-12-07T03:46:17;2.30;99.90
7317;DHT22;3699;51.462;6.696;2023-12-07T03:48:43;2.40;99.90
7317;DHT22;3699;51.462;6.696;2023-12-07T03:51:13;2.40;99.90
7317;DHT22;3699;51.462;6.696;2023-12-07T03:53:41;2.50;99.90
7317;DHT22;3699;51.462;6.696;2023-12-07T03:56:08;2.60;99.90
7317;DHT22;3699;51.462;6.696;2023-12-07T03:58:35;2.70;99.90
7317;DHT22;3699;51.462;6.696;2023-12-07T04:01:02;2.60;99.90
7317;DHT22;3699;51.462;6.696;2023-12-07T04:03:29;2.60;99.90
7317;DHT22;3699;51.462;6.696;2023-12-07T04:05:56;2.60;99.90
7317;DHT22;3699;51.462;6.696;2023-12-07T04:08:22;2.70;99.90
7317;DHT22;3699;51.462;6.696;2023-12-07T04:10:51;2.70;99.90
7317;DHT22;3699;51.462;6.696;2023-12-07T04:13:18;2.70;99.90
7317;DHT22;3699;51.462;6.696;2023-12-07T04:15:44;2.70;99.90
7317;DHT22;3699;51.462;6.696;2023-12-07T04:18:11;2.80;99.90
7317;DHT22;3699;51.462;6.696;2023-12-07T04:20:38;2.80;99.90
7317;DHT22;3699;51.462;6.696;2023-12-07T04:23:04;2.90;99.90
7317;DHT22;3699;51.462;6.696;2023-12-07T04:25:31;2.80;99.90
7317;DHT22;3699;51.462;6.696;2023-12-07T04:28:00;2.80;99.90
7317;DHT22;3699;51.462;6.696;2023-12-07T04:30:26;2.90;99.90
7317;DHT22;3699;51.462;6.696;2023-12-07T04:32:53;3.00;99.90
7317;DHT22;3699;51.462;6.696;2023-12-07T04:35:20;2.90;99.90
7317;DHT22;3699;51.462;6.696;2023-12-07T04:37:47;3.00;99.90
7317;DHT22;3699;51.462;6.696;2023-12-07T04:40:13;3.00;99.90
7317;DHT22;3699;51.462;6.696;2023-12-07T04:42:41;3.20;99.90
7317;DHT22;3699;51.462;6.696;2023-12-07T04:45:09;3.10;99.90
7317;DHT22;3699;51.462;6.696;2023-12-07T04:47:36;3.10;99.90
7317;DHT22;3699;51.462;6.696;2023-12-07T04:50:03;3.10;99.90
7317;DHT22;3699;51.462;6.696;2023-12-07T04:52:30;3.30;99.90
7317;DHT22;3699;51.462;6.696;2023-12-07T04:54:57;3.40;99.90
7317;DHT22;3699;51.462;6.696;2023-12-07T04:57:24;3.30;99.90
7317;DHT22;3699;51.462;6.696;2023-12-07T04:59:50;3.30;99.90
7317;DHT22;3699;51.462;6.696;2023-12-07T05:02:18;3.40;99.90
7317;DHT22;3699;51.462;6.696;2023-12-07T05:04:45;3.40;99.90
7317;DHT22;3699;51.462;6.696;2023-12-07T05:07:12;3.40;99.90
7317;DHT22;3699;51.462;6.696;2023-12-07T05:09:39;3.40;99.90
7317;DHT22;3699;51.462;6.696;2023-12-07T05:12:07;3.50;99.90
7317;DHT22;3699;51.462;6.696;2023-12-07T05:14:34;3.50;99.90
7317;DHT22;3699;51.462;6.696;2023-12-07T05:17:01;3.50;99.90
7317;DHT22;3699;51.462;6.696;2023-12-07T05:19:30;3.50;99.90
7317;DHT22;3699;51.462;6.696;2023-12-07T05:21:57;3.50;99.90
7317;DHT22;3699;51.462;6.696;2023-12-07T05:24:24;3.60;99.90
7317;DHT22;3699;51.462;6.696;2023-12-07T05:26:50;3.50;99.90
7317;DHT22;3699;51.462;6.696;2023-12-07T05:29:17;3.50;99.90
7317;DHT22;3699;51.462;6.696;2023-12-07T05:31:44;3.60;99.90
7317;DHT22;3699;51.462;6.696;2023-12-07T05:34:11;3.60;99.90
7317;DHT22;3699;51.462;6.696;2023-12-07T05:36:39;3.60;99.90
7317;DHT22;3699;51.462;6.696;2023-12-07T05:39:06;3.60;99.90
7317;DHT22;3699;51.462;6.696;2023-12-07T05:41:33;3.60;99.90
7317;DHT22;3699;51.462;6.696;2023-12-07T05:43:59;3.50;99.90
7317;DHT22;3699;51.462;6.696;2023-12-07T05:46:27;3.50;99.90
7317;DHT22;3699;51.462;6.696;2023-12-07T05:48:54;3.50;99.90
7317;DHT22;3699;51.462;6.696;2023-12-07T05:51:20;3.50;99.90
7317;DHT22;3699;51.462;6.696;2023-12-07T05:53:48;3.50;99.90
7317;DHT22;3699;51.462;6.696;2023-12-07T05:56:18;3.50;99.90
7317;DHT22;3699;51.462;6.696;2023-12-07T05:58:45;3.50;99.90
7317;DHT22;3699;51.462;6.696;2023-12-07T06:01:12;3.50;99.90
7317;DHT22;3699;51.462;6.696;2023-12-07T06:03:39;3.50;99.90
7317;DHT22;3699;51.462;6.696;2023-12-07T06:06:07;3.50;99.90
7317;DHT22;3699;51.462;6.696;2023-12-07T06:08:36;3.60;99.90
7317;DHT22;3699;51.462;6.696;2023-12-07T06:11:05;3.50;99.90
7317;DHT22;3699;51.462;6.696;2023-12-07T06:13:31;1.40;99.90
7317;DHT22;3699;51.462;6.696;2023-12-07T06:15:59;3.50;99.90
7317;DHT22;3699;51.462;6.696;2023-12-07T06:18:26;3.40;99.90
7317;DHT22;3699;51.462;6.696;2023-12-07T06:20:53;3.50;99.90
7317;DHT22;3699;51.462;6.696;2023-12-07T06:23:20;3.40;99.90
7317;DHT22;3699;51.462;6.696;2023-12-07T06:25:47;3.40;99.90
7317;DHT22;3699;51.462;6.696;2023-12-07T06:28:16;3.40;99.90
7317;DHT22;3699;51.462;6.696;2023-12-07T06:30:43;3.40;99.90
7317;DHT22;3699;51.462;6.696;2023-12-07T06:33:10;3.40;99.90
7317;DHT22;3699;51.462;6.696;2023-12-07T06:35:37;3.30;99.90
7317;DHT22;3699;51.462;6.696;2023-12-07T06:38:04;3.30;99.90
7317;DHT22;3699;51.462;6.696;2023-12-07T06:40:31;3.30;99.90
7317;DHT22;3699;51.462;6.696;2023-12-07T06:42:58;3.30;99.90
7317;DHT22;3699;51.462;6.696;2023-12-07T06:45:26;3.30;99.90
7317;DHT22;3699;51.462;6.696;2023-12-07T06:47:53;3.30;99.90
7317;DHT22;3699;51.462;6.696;2023-12-07T06:50:20;3.30;99.90
7317;DHT22;3699;51.462;6.696;2023-12-07T06:52:46;3.30;99.90
7317;DHT22;3699;51.462;6.696;2023-12-07T06:55:13;3.30;99.90
7317;DHT22;3699;51.462;6.696;2023-12-07T06:57:40;3.30;99.90
7317;DHT22;3699;51.462;6.696;2023-12-07T07:00:08;3.30;99.90
7317;DHT22;3699;51.462;6.696;2023-12-07T07:02:37;3.30;99.90
7317;DHT22;3699;51.462;6.696;2023-12-07T07:05:07;3.30;99.90
7317;DHT22;3699;51.462;6.696;2023-12-07T07:07:36;3.30;99.90
7317;DHT22;3699;51.462;6.696;2023-12-07T07:10:04;3.30;99.90
7317;DHT22;3699;51.462;6.696;2023-12-07T07:12:31;3.20;99.90
7317;DHT22;3699;51.462;6.696;2023-12-07T07:14:58;3.20;99.90
7317;DHT22;3699;51.462;6.696;2023-12-07T07:17:25;3.20;99.90
7317;DHT22;3699;51.462;6.696;2023-12-07T07:19:53;3.20;99.90
7317;DHT22;3699;51.462;6.696;2023-12-07T07:22:20;3.20;99.90
7317;DHT22;3699;51.462;6.696;2023-12-07T07:24:47;3.20;99.90
7317;DHT22;3699;51.462;6.696;2023-12-07T07:27:14;3.10;99.90
7317;DHT22;3699;51.462;6.696;2023-12-07T07:29:41;4.50;99.90
7317;DHT22;3699;51.462;6.696;2023-12-07T07:32:08;3.20;99.90
7317;DHT22;3699;51.462;6.696;2023-12-07T07:34:35;3.20;99.90
7317;DHT22;3699;51.462;6.696;2023-12-07T07:37:04;3.20;99.90
7317;DHT22;3699;51.462;6.696;2023-12-07T07:39:32;3.20;99.90
7317;DHT22;3699;51.462;6.696;2023-12-07T07:42:00;3.20;99.90
7317;DHT22;3699;51.462;6.696;2023-12-07T07:44:27;3.20;99.90
7317;DHT22;3699;51.462;6.696;2023-12-07T07:46:53;3.30;99.90
7317;DHT22;3699;51.462;6.696;2023-12-07T07:49:20;3.30;99.90
7317;DHT22;3699;51.462;6.696;2023-12-07T07:51:47;3.30;99.90
7317;DHT22;3699;51.462;6.696;2023-12-07T07:54:15;3.30;99.90
7317;DHT22;3699;51.462;6.696;2023-12-07T07:56:43;3.70;99.90
7317;DHT22;3699;51.462;6.696;2023-12-07T07:59:10;3.30;99.90
7317;DHT22;3699;51.462;6.696;2023-12-07T08:01:37;3.30;99.90
7317;DHT22;3699;51.462;6.696;2023-12-07T08:04:04;3.40;99.90
7317;DHT22;3699;51.462;6.696;2023-12-07T08:06:31;3.40;99.90
7317;DHT22;3699;51.462;6.696;2023-12-07T08:08:57;3.40;99.90
7317;DHT22;3699;51.462;6.696;2023-12-07T08:11:25;3.40;99.90
7317;DHT22;3699;51.462;6.696;2023-12-07T08:13:52;3.50;99.90
7317;DHT22;3699;51.462;6.696;2023-12-07T08:16:19;3.40;99.90
7317;DHT22;3699;51.462;6.696;2023-12-07T08:18:45;3.40;99.90
7317;DHT22;3699;51.462;6.696;2023-12-07T08:21:19;3.50;99.90
7317;DHT22;3699;51.462;6.696;2023-12-07T08:23:45;3.40;99.90
7317;DHT22;3699;51.462;6.696;2023-12-07T08:26:12;3.50;99.90
7317;DHT22;3699;51.462;6.696;2023-12-07T08:28:41;3.50;99.90
7317;DHT22;3699;51.462;6.696;2023-12-07T08:31:08;3.50;99.90
7317;DHT22;3699;51.462;6.696;2023-12-07T08:33:34;3.60;99.90
7317;DHT22;3699;51.462;6.696;2023-12-07T08:36:01;3.60;99.90
7317;DHT22;3699;51.462;6.696;2023-12-07T08:38:28;3.90;99.90
7317;DHT22;3699;51.462;6.696;2023-12-07T08:40:55;3.70;99.90
7317;DHT22;3699;51.462;6.696;2023-12-07T08:43:24;3.90;99.90
7317;DHT22;3699;51.462;6.696;2023-12-07T08:45:52;3.80;99.90
7317;DHT22;3699;51.462;6.696;2023-12-07T08:48:19;3.70;99.90
7317;DHT22;3699;51.462;6.696;2023-12-07T08:50:46;3.90;99.90
7317;DHT22;3699;51.462;6.696;2023-12-07T08:53:13;4.50;99.90
7317;DHT22;3699;51.462;6.696;2023-12-07T08:55:40;4.00;99.90
7317;DHT22;3699;51.462;6.696;2023-12-07T08:58:07;3.90;99.90
7317;DHT22;3699;51.462;6.696;2023-12-07T09:00:35;3.90;99.90
7317;DHT22;3699;51.462;6.696;2023-12-07T09:03:03;3.90;99.90
7317;DHT22;3699;51.462;6.696;2023-12-07T09:05:29;3.90;99.90
7317;DHT22;3699;51.462;6.696;2023-12-07T09:07:56;3.80;99.90
7317;DHT22;3699;51.462;6.696;2023-12-07T09:10:23;3.90;99.90
7317;DHT22;3699;51.462;6.696;2023-12-07T09:12:50;3.90;99.90
7317;DHT22;3699;51.462;6.696;2023-12-07T09:15:17;3.80;99.90
7317;DHT22;3699;51.462;6.696;2023-12-07T09:17:43;3.40;99.90
7317;DHT22;3699;51.462;6.696;2023-12-07T09:20:11;3.60;99.90
7317;DHT22;3699;51.462;6.696;2023-12-07T09:22:39;3.80;99.90
7317;DHT22;3699;51.462;6.696;2023-12-07T09:25:07;3.70;99.90
7317;DHT22;3699;51.462;6.696;2023-12-07T09:27:34;3.80;99.90
7317;DHT22;3699;51.462;6.696;2023-12-07T09:30:03;4.30;99.90
7317;DHT22;3699;51.462;6.696;2023-12-07T09:32:30;3.90;99.90
7317;DHT22;3699;51.462;6.696;2023-12-07T09:34:57;3.90;99.90
7317;DHT22;3699;51.462;6.696;2023-12-07T09:37:25;4.00;99.90
7317;DHT22;3699;51.462;6.696;2023-12-07T09:39:52;4.00;99.90
7317;DHT22;3699;51.462;6.696;2023-12-07T09:42:18;4.00;99.90
7317;DHT22;3699;51.462;6.696;2023-12-07T09:44:45;4.10;99.90
7317;DHT22;3699;51.462;6.696;2023-12-07T09:47:12;4.10;99.90
7317;DHT22;3699;51.462;6.696;2023-12-07T09:49:39;4.20;99.90
7317;DHT22;3699;51.462;6.696;2023-12-07T09:52:07;4.30;99.90
7317;DHT22;3699;51.462;6.696;2023-12-07T09:54:36;4.30;99.90
7317;DHT22;3699;51.462;6.696;2023-12-07T09:57:06;4.30;99.90
7317;DHT22;3699;51.462;6.696;2023-12-07T09:59:35;4.40;99.90
7317;DHT22;3699;51.462;6.696;2023-12-07T10:02:01;4.40;99.90
7317;DHT22;3699;51.462;6.696;2023-12-07T10:04:28;4.50;99.90
7317;DHT22;3699;51.462;6.696;2023-12-07T10:06:56;4.60;99.90
7317;DHT22;3699;51.462;6.696;2023-12-07T10:09:23;4.70;99.90
7317;DHT22;3699;51.462;6.696;2023-12-07T10:12:01;4.80;99.90
7317;DHT22;3699;51.462;6.696;2023-12-07T10:14:28;4.80;99.90
7317;DHT22;3699;51.462;6.696;2023-12-07T10:16:55;4.80;99.90
7317;DHT22;3699;51.462;6.696;2023-12-07T10:19:23;4.90;99.90
7317;DHT22;3699;51.462;6.696;2023-12-07T10:21:51;4.80;99.90
7317;DHT22;3699;51.462;6.696;2023-12-07T10:24:20;4.90;99.90
7317;DHT22;3699;51.462;6.696;2023-12-07T10:26:48;4.90;99.90
7317;DHT22;3699;51.462;6.696;2023-12-07T10:29:17;5.00;99.90
7317;DHT22;3699;51.462;6.696;2023-12-07T10:31:44;5.10;99.90
7317;DHT22;3699;51.462;6.696;2023-12-07T10:34:12;5.10;99.90
7317;DHT22;3699;51.462;6.696;2023-12-07T10:36:39;5.10;99.90
7317;DHT22;3699;51.462;6.696;2023-12-07T10:39:05;5.00;99.90
7317;DHT22;3699;51.462;6.696;2023-12-07T10:41:34;5.00;99.90
7317;DHT22;3699;51.462;6.696;2023-12-07T10:44:05;5.00;99.90
7317;DHT22;3699;51.462;6.696;2023-12-07T10:46:34;5.00;99.90
7317;DHT22;3699;51.462;6.696;2023-12-07T10:49:04;5.00;99.90
7317;DHT22;3699;51.462;6.696;2023-12-07T10:51:37;5.00;99.90
7317;DHT22;3699;51.462;6.696;2023-12-07T10:54:06;5.00;99.90
7317;DHT22;3699;51.462;6.696;2023-12-07T10:56:38;5.00;99.90
7317;DHT22;3699;51.462;6.696;2023-12-07T10:59:08;5.00;99.90
7317;DHT22;3699;51.462;6.696;2023-12-07T11:01:38;5.00;99.90
7317;DHT22;3699;51.462;6.696;2023-12-07T11:04:06;5.00;99.90
7317;DHT22;3699;51.462;6.696;2023-12-07T11:06:34;5.10;99.90
7317;DHT22;3699;51.462;6.696;2023-12-07T11:09:04;5.00;99.90
7317;DHT22;3699;51.462;6.696;2023-12-07T11:11:36;5.20;99.90
7317;DHT22;3699;51.462;6.696;2023-12-07T11:14:06;5.20;99.90
7317;DHT22;3699;51.462;6.696;2023-12-07T11:16:36;5.20;99.90
7317;DHT22;3699;51.462;6.696;2023-12-07T11:19:04;5.20;99.90
7317;DHT22;3699;51.462;6.696;2023-12-07T11:21:31;5.20;99.90
7317;DHT22;3699;51.462;6.696;2023-12-07T11:23:59;5.30;99.90
7317;DHT22;3699;51.462;6.696;2023-12-07T11:26:27;5.30;99.90
7317;DHT22;3699;51.462;6.696;2023-12-07T11:28:55;5.20;99.90
7317;DHT22;3699;51.462;6.696;2023-12-07T11:31:22;5.20;99.90
7317;DHT22;3699;51.462;6.696;2023-12-07T11:33:50;5.20;99.90
7317;DHT22;3699;51.462;6.696;2023-12-07T11:36:17;5.20;99.90
7317;DHT22;3699;51.462;6.696;2023-12-07T11:39:16;5.30;99.90
7317;DHT22;3699;51.462;6.696;2023-12-07T11:41:46;5.30;99.90
7317;DHT22;3699;51.462;6.696;2023-12-07T11:44:17;5.20;99.90
7317;DHT22;3699;51.462;6.696;2023-12-07T11:46:44;5.30;99.90
7317;DHT22;3699;51.462;6.696;2023-12-07T11:49:12;5.40;99.90
7317;DHT22;3699;51.462;6.696;2023-12-07T11:51:39;5.50;99.90
7317;DHT22;3699;51.462;6.696;2023-12-07T11:54:06;5.40;99.90
7317;DHT22;3699;51.462;6.696;2023-12-07T11:56:36;5.40;99.90
7317;DHT22;3699;51.462;6.696;2023-12-07T11:59:02;5.40;99.90
7317;DHT22;3699;51.462;6.696;2023-12-07T12:01:29;5.40;99.90
7317;DHT22;3699;51.462;6.696;2023-12-07T12:03:56;5.40;99.90
7317;DHT22;3699;51.462;6.696;2023-12-07T12:06:25;5.40;99.90
7317;DHT22;3699;51.462;6.696;2023-12-07T12:08:52;5.40;99.90
7317;DHT22;3699;51.462;6.696;2023-12-07T12:11:19;5.40;99.90
7317;DHT22;3699;51.462;6.696;2023-12-07T12:13:46;5.40;99.90
7317;DHT22;3699;51.462;6.696;2023-12-07T12:16:15;5.50;99.90
7317;DHT22;3699;51.462;6.696;2023-12-07T12:18:42;5.40;99.90
7317;DHT22;3699;51.462;6.696;2023-12-07T12:21:08;5.40;99.90
7317;DHT22;3699;51.462;6.696;2023-12-07T12:23:37;5.40;99.90
7317;DHT22;3699;51.462;6.696;2023-12-07T12:26:06;5.40;99.90
7317;DHT22;3699;51.462;6.696;2023-12-07T12:28:33;5.40;99.90
7317;DHT22;3699;51.462;6.696;2023-12-07T12:31:03;5.40;99.90
7317;DHT22;3699;51.462;6.696;2023-12-07T12:33:31;5.40;99.90
7317;DHT22;3699;51.462;6.696;2023-12-07T12:36:05;5.30;99.90
7317;DHT22;3699;51.462;6.696;2023-12-07T12:38:33;5.40;99.90
7317;DHT22;3699;51.462;6.696;2023-12-07T12:41:01;5.30;99.90
7317;DHT22;3699;51.462;6.696;2023-12-07T12:43:29;5.20;99.90
7317;DHT22;3699;51.462;6.696;2023-12-07T12:45:57;5.10;99.90
7317;DHT22;3699;51.462;6.696;2023-12-07T12:48:24;5.10;99.90
7317;DHT22;3699;51.462;6.696;2023-12-07T12:50:52;5.20;99.90
7317;DHT22;3699;51.462;6.696;2023-12-07T12:53:20;5.10;99.90
7317;DHT22;3699;51.462;6.696;2023-12-07T12:55:47;5.20;99.90
7317;DHT22;3699;51.462;6.696;2023-12-07T12:58:16;5.10;99.90
7317;DHT22;3699;51.462;6.696;2023-12-07T13:00:43;5.30;99.90
7317;DHT22;3699;51.462;6.696;2023-12-07T13:03:10;5.20;99.90
7317;DHT22;3699;51.462;6.696;2023-12-07T13:05:38;5.10;99.90
7317;DHT22;3699;51.462;6.696;2023-12-07T13:08:05;5.30;99.90
7317;DHT22;3699;51.462;6.696;2023-12-07T13:10:32;5.10;99.90
7317;DHT22;3699;51.462;6.696;2023-12-07T13:13:00;5.20;99.90
7317;DHT22;3699;51.462;6.696;2023-12-07T13:15:30;5.20;99.90
7317;DHT22;3699;51.462;6.696;2023-12-07T13:17:56;5.20;99.90
7317;DHT22;3699;51.462;6.696;2023-12-07T13:20:23;5.20;99.90
7317;DHT22;3699;51.462;6.696;2023-12-07T13:22:50;5.00;99.90
7317;DHT22;3699;51.462;6.696;2023-12-07T13:25:16;5.10;99.90
7317;DHT22;3699;51.462;6.696;2023-12-07T13:27:43;5.10;99.90
7317;DHT22;3699;51.462;6.696;2023-12-07T13:30:10;4.90;99.90
7317;DHT22;3699;51.462;6.696;2023-12-07T13:32:39;5.00;99.90
7317;DHT22;3699;51.462;6.696;2023-12-07T13:35:06;5.00;99.90
7317;DHT22;3699;51.462;6.696;2023-12-07T13:37:34;5.10;99.90
7317;DHT22;3699;51.462;6.696;2023-12-07T13:40:02;5.10;99.90
7317;DHT22;3699;51.462;6.696;2023-12-07T13:42:30;5.30;99.90
7317;DHT22;3699;51.462;6.696;2023-12-07T13:44:58;5.80;99.90
7317;DHT22;3699;51.462;6.696;2023-12-07T13:47:26;5.20;99.90
7317;DHT22;3699;51.462;6.696;2023-12-07T13:49:58;5.20;99.90
7317;DHT22;3699;51.462;6.696;2023-12-07T13:52:25;5.20;99.90
7317;DHT22;3699;51.462;6.696;2023-12-07T13:54:54;5.20;99.90
7317;DHT22;3699;51.462;6.696;2023-12-07T13:57:21;5.20;99.90
7317;DHT22;3699;51.462;6.696;2023-12-07T13:59:49;5.10;99.90
7317;DHT22;3699;51.462;6.696;2023-12-07T14:02:16;5.30;99.90
7317;DHT22;3699;51.462;6.696;2023-12-07T14:04:43;5.40;99.90
7317;DHT22;3699;51.462;6.696;2023-12-07T14:07:12;5.30;99.90
7317;DHT22;3699;51.462;6.696;2023-12-07T14:09:41;5.20;99.90
7317;DHT22;3699;51.462;6.696;2023-12-07T14:12:08;5.20;99.90
7317;DHT22;3699;51.462;6.696;2023-12-07T14:14:36;5.20;99.90
7317;DHT22;3699;51.462;6.696;2023-12-07T14:17:03;5.20;99.90
7317;DHT22;3699;51.462;6.696;2023-12-07T14:19:30;5.10;99.90
7317;DHT22;3699;51.462;6.696;2023-12-07T14:21:56;5.10;99.90
7317;DHT22;3699;51.462;6.696;2023-12-07T14:24:25;5.10;99.90
7317;DHT22;3699;51.462;6.696;2023-12-07T14:26:52;5.00;99.90
7317;DHT22;3699;51.462;6.696;2023-12-07T14:29:19;5.00;99.90
7317;DHT22;3699;51.462;6.696;2023-12-07T14:31:47;5.00;99.90
7317;DHT22;3699;51.462;6.696;2023-12-07T14:34:15;5.00;99.90
7317;DHT22;3699;51.462;6.696;2023-12-07T14:36:42;5.00;99.90
7317;DHT22;3699;51.462;6.696;2023-12-07T14:39:09;4.80;99.90
7317;DHT22;3699;51.462;6.696;2023-12-07T14:41:44;4.80;99.90
7317;DHT22;3699;51.462;6.696;2023-12-07T14:44:12;4.80;99.90
7317;DHT22;3699;51.462;6.696;2023-12-07T14:46:40;4.90;99.90
7317;DHT22;3699;51.462;6.696;2023-12-07T14:49:07;4.60;99.90
7317;DHT22;3699;51.462;6.696;2023-12-07T14:51:33;4.80;99.90
7317;DHT22;3699;51.462;6.696;2023-12-07T14:54:00;4.70;99.90
7317;DHT22;3699;51.462;6.696;2023-12-07T14:56:27;4.80;99.90
7317;DHT22;3699;51.462;6.696;2023-12-07T14:58:55;4.70;99.90
7317;DHT22;3699;51.462;6.696;2023-12-07T15:01:23;4.60;99.90
7317;DHT22;3699;51.462;6.696;2023-12-07T15:03:51;4.60;99.90
7317;DHT22;3699;51.462;6.696;2023-12-07T15:06:18;4.60;99.90
7317;DHT22;3699;51.462;6.696;2023-12-07T15:08:44;4.50;99.90
7317;DHT22;3699;51.462;6.696;2023-12-07T15:11:14;4.50;99.90
7317;DHT22;3699;51.462;6.696;2023-12-07T15:13:41;4.50;99.90
7317;DHT22;3699;51.462;6.696;2023-12-07T15:16:08;4.50;99.90
7317;DHT22;3699;51.462;6.696;2023-12-07T15:18:35;4.50;99.90
7317;DHT22;3699;51.462;6.696;2023-12-07T15:21:03;4.40;99.90
7317;DHT22;3699;51.462;6.696;2023-12-07T15:23:30;4.20;99.90
7317;DHT22;3699;51.462;6.696;2023-12-07T15:25:58;4.30;99.90
7317;DHT22;3699;51.462;6.696;2023-12-07T15:28:24;4.30;99.90
7317;DHT22;3699;51.462;6.696;2023-12-07T15:30:51;4.10;99.90
7317;DHT22;3699;51.462;6.696;2023-12-07T15:33:19;4.20;99.90
7317;DHT22;3699;51.462;6.696;2023-12-07T15:35:46;4.20;99.90
7317;DHT22;3699;51.462;6.696;2023-12-07T15:38:13;4.20;99.90
7317;DHT22;3699;51.462;6.696;2023-12-07T15:40:40;4.20;99.90
7317;DHT22;3699;51.462;6.696;2023-12-07T15:43:07;4.10;99.90
7317;DHT22;3699;51.462;6.696;2023-12-07T15:45:33;4.00;99.90
7317;DHT22;3699;51.462;6.696;2023-12-07T15:48:00;4.00;99.90
7317;DHT22;3699;51.462;6.696;2023-12-07T15:50:28;3.80;99.90
7317;DHT22;3699;51.462;6.696;2023-12-07T15:52:55;4.00;99.90
7317;DHT22;3699;51.462;6.696;2023-12-07T15:55:22;4.00;99.90
7317;DHT22;3699;51.462;6.696;2023-12-07T15:57:48;4.00;99.90
7317;DHT22;3699;51.462;6.696;2023-12-07T16:00:16;3.80;99.90
7317;DHT22;3699;51.462;6.696;2023-12-07T16:02:43;4.00;99.90
7317;DHT22;3699;51.462;6.696;2023-12-07T16:05:10;3.90;99.90
7317;DHT22;3699;51.462;6.696;2023-12-07T16:07:38;3.90;99.90
7317;DHT22;3699;51.462;6.696;2023-12-07T16:10:06;3.80;99.90
7317;DHT22;3699;51.462;6.696;2023-12-07T16:12:33;3.80;99.90
7317;DHT22;3699;51.462;6.696;2023-12-07T16:15:00;3.80;99.90
7317;DHT22;3699;51.462;6.696;2023-12-07T16:19:55;3.90;99.90
7317;DHT22;3699;51.462;6.696;2023-12-07T16:22:22;3.90;99.90
7317;DHT22;3699;51.462;6.696;2023-12-07T16:24:50;3.80;99.90